sensor_id;sensor_type;location;lat;lon;timestamp;temperature;humidity
27779;DHT22;30234;48.090;11.464;2022-07-10T00:02:41;17.30;99.90
27779;DHT22;30234;48.090;11.464;2022-07-10T00:06:42;17.30;99.90
27779;DHT22;30234;48.090;11.464;2022-07-10T00:10:47;17.30;99.90
27779;DHT22;30234;48.090;11.464;2022-07-10T00:14:47;17.40;99.90
27779;DHT22;30234;48.090;11.464;2022-07-10T00:18:48;17.30;99.90
27779;DHT22;30234;48.090;11.464;2022-07-10T00:22:49;17.40;99.90
27779;DHT22;30234;48.090;11.464;2022-07-10T00:26:49;17.30;99.90
27779;DHT22;30234;48.090;11.464;2022-07-10T00:30:50;17.30;99.90
27779;DHT22;30234;48.090;11.464;2022-07-10T00:34:51;17.30;99.90
27779;DHT22;30234;48.090;11.464;2022-07-10T00:38:52;17.00;99.90
27779;DHT22;30234;48.090;11.464;2022-07-10T00:42:52;16.60;99.90
27779;DHT22;30234;48.090;11.464;2022-07-10T00:46:53;16.30;99.90
27779;DHT22;30234;48.090;11.464;2022-07-10T00:50:54;16.30;99.90
27779;DHT22;30234;48.090;11.464;2022-07-10T00:54:54;16.20;99.90
27779;DHT22;30234;48.090;11.464;2022-07-10T00:58:55;15.90;99.90
27779;DHT22;30234;48.090;11.464;2022-07-10T01:02:56;15.60;99.90
27779;DHT22;30234;48.090;11.464;2022-07-10T01:06:57;15.40;99.90
27779;DHT22;30234;48.090;11.464;2022-07-10T01:10:58;15.20;99.90
27779;DHT22;30234;48.090;11.464;2022-07-10T01:14:59;15.20;99.90
27779;DHT22;30234;48.090;11.464;2022-07-10T01:19:00;15.20;99.90
27779;DHT22;30234;48.090;11.464;2022-07-10T01:23:01;15.10;99.90
27779;DHT22;30234;48.090;11.464;2022-07-10T01:27:02;15.00;99.90
27779;DHT22;30234;48.090;11.464;2022-07-10T01:31:03;15.00;99.90
27779;DHT22;30234;48.090;11.464;2022-07-10T01:35:04;14.90;99.90
27779;DHT22;30234;48.090;11.464;2022-07-10T01:39:06;14.90;99.90
27779;DHT22;30234;48.090;11.464;2022-07-10T01:43:07;14.90;99.90
27779;DHT22;30234;48.090;11.464;2022-07-10T01:47:08;14.80;99.90
27779;DHT22;30234;48.090;11.464;2022-07-10T01:51:10;14.80;99.90
27779;DHT22;30234;48.090;11.464;2022-07-10T01:55:11;14.70;99.90
27779;DHT22;30234;48.090;11.464;2022-07-10T01:59:12;14.70;99.90
27779;DHT22;30234;48.090;11.464;2022-07-10T02:03:13;14.60;99.90
27779;DHT22;30234;48.090;11.464;2022-07-10T02:07:32;14.70;99.90
27779;DHT22;30234;48.090;11.464;2022-07-10T02:11:33;14.70;99.90
27779;DHT22;30234;48.090;11.464;2022-07-10T02:15:33;14.80;99.90
27779;DHT22;30234;48.090;11.464;2022-07-10T02:19:34;14.70;99.90
27779;DHT22;30234;48.090;11.464;2022-07-10T02:23:36;14.70;99.90
27779;DHT22;30234;48.090;11.464;2022-07-10T02:27:39;14.80;99.90
27779;DHT22;30234;48.090;11.464;2022-07-10T02:31:40;14.80;99.90
27779;DHT22;30234;48.090;11.464;2022-07-10T02:35:40;14.80;99.90
27779;DHT22;30234;48.090;11.464;2022-07-10T02:39:41;14.70;99.90
27779;DHT22;30234;48.090;11.464;2022-07-10T02:43:42;14.70;99.90
27779;DHT22;30234;48.090;11.464;2022-07-10T02:47:43;14.70;99.90
27779;DHT22;30234;48.090;11.464;2022-07-10T02:51:43;14.70;99.90
27779;DHT22;30234;48.090;11.464;2022-07-10T02:55:44;14.70;99.90
27779;DHT22;30234;48.090;11.464;2022-07-10T02:59:45;14.70;99.90
27779;DHT22;30234;48.090;11.464;2022-07-10T03:03:46;14.70;99.90
27779;DHT22;30234;48.090;11.464;2022-07-10T03:07:47;14.60;99.90
27779;DHT22;30234;48.090;11.464;2022-07-10T03:11:48;14.50;99.90
27779;DHT22;30234;48.090;11.464;2022-07-10T03:15:48;14.30;99.90
27779;DHT22;30234;48.090;11.464;2022-07-10T03:19:49;14.30;99.90
27779;DHT22;30234;48.090;11.464;2022-07-10T03:23:50;14.10;99.90
27779;DHT22;30234;48.090;11.464;2022-07-10T03:27:51;14.10;99.90
27779;DHT22;30234;48.090;11.464;2022-07-10T03:31:51;14.00;99.90
27779;DHT22;30234;48.090;11.464;2022-07-10T03:35:53;13.90;99.90
27779;DHT22;30234;48.090;11.464;2022-07-10T03:39:54;13.90;99.90
27779;DHT22;30234;48.090;11.464;2022-07-10T03:43:54;13.80;99.90
27779;DHT22;30234;48.090;11.464;2022-07-10T03:47:55;13.80;99.90
27779;DHT22;30234;48.090;11.464;2022-07-10T03:52:02;14.00;99.90
27779;DHT22;30234;48.090;11.464;2022-07-10T03:56:03;14.10;99.90
27779;DHT22;30234;48.090;11.464;2022-07-10T04:00:05;14.10;99.90
27779;DHT22;30234;48.090;11.464;2022-07-10T04:04:06;14.30;99.90
27779;DHT22;30234;48.090;11.464;2022-07-10T04:08:07;14.40;99.90
27779;DHT22;30234;48.090;11.464;2022-07-10T04:12:09;14.60;99.90
27779;DHT22;30234;48.090;11.464;2022-07-10T04:16:10;14.60;99.90
27779;DHT22;30234;48.090;11.464;2022-07-10T04:20:13;14.70;99.90
27779;DHT22;30234;48.090;11.464;2022-07-10T04:24:14;14.80;99.90
27779;DHT22;30234;48.090;11.464;2022-07-10T04:28:15;14.90;99.90
27779;DHT22;30234;48.090;11.464;2022-07-10T04:32:16;15.00;99.90
27779;DHT22;30234;48.090;11.464;2022-07-10T04:36:17;14.90;99.90
27779;DHT22;30234;48.090;11.464;2022-07-10T04:40:18;15.00;99.90
27779;DHT22;30234;48.090;11.464;2022-07-10T04:44:19;15.00;99.90
27779;DHT22;30234;48.090;11.464;2022-07-10T04:48:20;15.10;99.90
27779;DHT22;30234;48.090;11.464;2022-07-10T04:52:20;15.20;99.90
27779;DHT22;30234;48.090;11.464;2022-07-10T04:56:21;15.30;99.90
27779;DHT22;30234;48.090;11.464;2022-07-10T05:00:22;15.30;99.90
27779;DHT22;30234;48.090;11.464;2022-07-10T05:04:23;15.40;99.90
27779;DHT22;30234;48.090;11.464;2022-07-10T05:08:23;15.50;99.90
27779;DHT22;30234;48.090;11.464;2022-07-10T05:12:25;15.50;99.90
27779;DHT22;30234;48.090;11.464;2022-07-10T05:16:26;15.70;99.90
27779;DHT22;30234;48.090;11.464;2022-07-10T05:20:26;15.80;99.90
27779;DHT22;30234;48.090;11.464;2022-07-10T05:24:27;15.80;99.90
27779;DHT22;30234;48.090;11.464;2022-07-10T05:28:28;16.00;99.90
27779;DHT22;30234;48.090;11.464;2022-07-10T05:32:29;16.00;99.90
27779;DHT22;30234;48.090;11.464;2022-07-10T05:36:29;16.00;99.90
27779;DHT22;30234;48.090;11.464;2022-07-10T05:40:30;15.90;99.90
27779;DHT22;30234;48.090;11.464;2022-07-10T05:44:31;16.00;99.90
27779;DHT22;30234;48.090;11.464;2022-07-10T05:48:32;16.20;99.90
27779;DHT22;30234;48.090;11.464;2022-07-10T05:52:33;16.60;99.90
27779;DHT22;30234;48.090;11.464;2022-07-10T05:56:34;16.70;99.90
27779;DHT22;30234;48.090;11.464;2022-07-10T06:00:35;16.60;99.90
27779;DHT22;30234;48.090;11.464;2022-07-10T06:04:36;16.60;99.90
27779;DHT22;30234;48.090;11.464;2022-07-10T06:08:36;16.80;99.90
27779;DHT22;30234;48.090;11.464;2022-07-10T06:12:37;17.90;99.90
27779;DHT22;30234;48.090;11.464;2022-07-10T06:16:38;18.30;99.90
27779;DHT22;30234;48.090;11.464;2022-07-10T06:20:38;18.70;99.90
27779;DHT22;30234;48.090;11.464;2022-07-10T06:24:39;18.50;99.90
27779;DHT22;30234;48.090;11.464;2022-07-10T06:28:40;18.10;99.90
27779;DHT22;30234;48.090;11.464;2022-07-10T06:32:41;17.80;99.90
27779;DHT22;30234;48.090;11.464;2022-07-10T06:36:42;17.50;99.90
27779;DHT22;30234;48.090;11.464;2022-07-10T06:40:44;17.80;99.90
27779;DHT22;30234;48.090;11.464;2022-07-10T06:44:45;17.50;99.90
27779;DHT22;30234;48.090;11.464;2022-07-10T06:48:46;17.60;99.90
27779;DHT22;30234;48.090;11.464;2022-07-10T06:52:48;17.50;99.90
27779;DHT22;30234;48.090;11.464;2022-07-10T06:56:49;17.50;99.90
27779;DHT22;30234;48.090;11.464;2022-07-10T07:00:50;17.70;99.90
27779;DHT22;30234;48.090;11.464;2022-07-10T07:04:51;18.10;99.90
27779;DHT22;30234;48.090;11.464;2022-07-10T07:08:51;18.10;99.90
27779;DHT22;30234;48.090;11.464;2022-07-10T07:12:52;17.90;99.90
27779;DHT22;30234;48.090;11.464;2022-07-10T07:16:53;18.00;99.90
27779;DHT22;30234;48.090;11.464;2022-07-10T07:21:04;18.20;99.90
27779;DHT22;30234;48.090;11.464;2022-07-10T07:25:23;18.00;99.90
27779;DHT22;30234;48.090;11.464;2022-07-10T07:29:24;17.60;99.90
27779;DHT22;30234;48.090;11.464;2022-07-10T07:33:25;17.60;99.90
27779;DHT22;30234;48.090;11.464;2022-07-10T07:37:40;17.90;99.90
27779;DHT22;30234;48.090;11.464;2022-07-10T07:41:45;17.90;99.90
27779;DHT22;30234;48.090;11.464;2022-07-10T07:45:46;17.60;99.90
27779;DHT22;30234;48.090;11.464;2022-07-10T07:49:47;17.60;99.90
27779;DHT22;30234;48.090;11.464;2022-07-10T07:53:55;18.10;99.90
27779;DHT22;30234;48.090;11.464;2022-07-10T07:57:56;19.20;99.90
27779;DHT22;30234;48.090;11.464;2022-07-10T08:01:57;19.80;99.90
27779;DHT22;30234;48.090;11.464;2022-07-10T08:05:58;20.40;99.90
27779;DHT22;30234;48.090;11.464;2022-07-10T08:10:05;23.10;99.90
27779;DHT22;30234;48.090;11.464;2022-07-10T08:14:09;25.80;99.90
27779;DHT22;30234;48.090;11.464;2022-07-10T08:18:10;24.60;99.90
27779;DHT22;30234;48.090;11.464;2022-07-10T08:22:21;27.10;99.90
27779;DHT22;30234;48.090;11.464;2022-07-10T08:26:22;29.90;92.40
27779;DHT22;30234;48.090;11.464;2022-07-10T08:30:23;29.70;85.30
27779;DHT22;30234;48.090;11.464;2022-07-10T08:34:23;28.20;85.40
27779;DHT22;30234;48.090;11.464;2022-07-10T08:38:25;26.50;90.50
27779;DHT22;30234;48.090;11.464;2022-07-10T08:42:26;26.00;89.20
27779;DHT22;30234;48.090;11.464;2022-07-10T08:46:27;24.50;90.80
27779;DHT22;30234;48.090;11.464;2022-07-10T08:50:31;25.30;91.00
27779;DHT22;30234;48.090;11.464;2022-07-10T08:54:33;26.60;88.70
27779;DHT22;30234;48.090;11.464;2022-07-10T08:58:35;27.70;83.00
27779;DHT22;30234;48.090;11.464;2022-07-10T09:02:36;25.50;84.60
27779;DHT22;30234;48.090;11.464;2022-07-10T09:06:37;23.10;90.90
27779;DHT22;30234;48.090;11.464;2022-07-10T09:10:38;22.40;93.70
27779;DHT22;30234;48.090;11.464;2022-07-10T09:14:39;24.20;92.80
27779;DHT22;30234;48.090;11.464;2022-07-10T09:18:40;25.10;90.90
27779;DHT22;30234;48.090;11.464;2022-07-10T09:22:41;26.80;87.30
27779;DHT22;30234;48.090;11.464;2022-07-10T09:26:42;26.90;81.20
27779;DHT22;30234;48.090;11.464;2022-07-10T09:30:44;24.40;85.50
27779;DHT22;30234;48.090;11.464;2022-07-10T09:34:52;23.00;90.90
27779;DHT22;30234;48.090;11.464;2022-07-10T09:39:13;26.00;85.20
27779;DHT22;30234;48.090;11.464;2022-07-10T09:43:14;26.40;77.80
27779;DHT22;30234;48.090;11.464;2022-07-10T09:47:24;26.30;78.80
27779;DHT22;30234;48.090;11.464;2022-07-10T09:51:25;27.20;74.70
27779;DHT22;30234;48.090;11.464;2022-07-10T09:55:28;27.20;73.70
27779;DHT22;30234;48.090;11.464;2022-07-10T09:59:31;26.20;75.90
27779;DHT22;30234;48.090;11.464;2022-07-10T10:03:37;24.10;78.00
27779;DHT22;30234;48.090;11.464;2022-07-10T10:07:45;23.90;78.00
27779;DHT22;30234;48.090;11.464;2022-07-10T10:11:46;24.10;76.20
27779;DHT22;30234;48.090;11.464;2022-07-10T10:16:09;24.70;78.00
27779;DHT22;30234;48.090;11.464;2022-07-10T10:20:32;26.40;75.60
27779;DHT22;30234;48.090;11.464;2022-07-10T10:24:48;27.00;73.50
27779;DHT22;30234;48.090;11.464;2022-07-10T10:29:02;26.00;73.40
27779;DHT22;30234;48.090;11.464;2022-07-10T10:33:40;25.60;73.30
27779;DHT22;30234;48.090;11.464;2022-07-10T10:38:00;25.20;75.30
27779;DHT22;30234;48.090;11.464;2022-07-10T10:42:02;24.30;75.30
27779;DHT22;30234;48.090;11.464;2022-07-10T10:46:27;23.80;75.00
27779;DHT22;30234;48.090;11.464;2022-07-10T10:55:09;21.90;82.50
27779;DHT22;30234;48.090;11.464;2022-07-10T10:59:55;22.70;82.30
27779;DHT22;30234;48.090;11.464;2022-07-10T11:04:15;24.80;75.50
27779;DHT22;30234;48.090;11.464;2022-07-10T11:08:49;23.70;76.20
27779;DHT22;30234;48.090;11.464;2022-07-10T11:21:46;23.50;77.50
27779;DHT22;30234;48.090;11.464;2022-07-10T11:25:54;24.20;76.20
27779;DHT22;30234;48.090;11.464;2022-07-10T11:30:20;25.60;74.20
27779;DHT22;30234;48.090;11.464;2022-07-10T11:34:28;24.50;73.20
27779;DHT22;30234;48.090;11.464;2022-07-10T11:38:34;23.70;75.90
27779;DHT22;30234;48.090;11.464;2022-07-10T11:42:53;24.20;74.40
27779;DHT22;30234;48.090;11.464;2022-07-10T11:46:54;24.60;72.00
27779;DHT22;30234;48.090;11.464;2022-07-10T11:50:57;24.20;70.70
27779;DHT22;30234;48.090;11.464;2022-07-10T11:55:22;24.00;71.80
27779;DHT22;30234;48.090;11.464;2022-07-10T11:59:27;24.60;72.70
27779;DHT22;30234;48.090;11.464;2022-07-10T12:03:28;24.30;71.60
27779;DHT22;30234;48.090;11.464;2022-07-10T12:07:30;24.50;72.10
27779;DHT22;30234;48.090;11.464;2022-07-10T12:11:31;24.40;71.20
27779;DHT22;30234;48.090;11.464;2022-07-10T12:15:36;24.70;73.40
27779;DHT22;30234;48.090;11.464;2022-07-10T12:19:40;25.10;71.40
27779;DHT22;30234;48.090;11.464;2022-07-10T12:23:44;24.90;68.70
27779;DHT22;30234;48.090;11.464;2022-07-10T12:27:48;25.40;69.70
27779;DHT22;30234;48.090;11.464;2022-07-10T12:32:02;24.30;70.00
27779;DHT22;30234;48.090;11.464;2022-07-10T12:36:03;24.10;71.70
27779;DHT22;30234;48.090;11.464;2022-07-10T12:40:05;24.60;69.80
27779;DHT22;30234;48.090;11.464;2022-07-10T12:44:12;24.80;68.10
27779;DHT22;30234;48.090;11.464;2022-07-10T12:48:21;24.40;69.00
27779;DHT22;30234;48.090;11.464;2022-07-10T12:52:35;25.10;67.40
27779;DHT22;30234;48.090;11.464;2022-07-10T12:56:40;25.80;66.30
27779;DHT22;30234;48.090;11.464;2022-07-10T13:00:46;24.40;68.30
27779;DHT22;30234;48.090;11.464;2022-07-10T13:04:54;23.80;69.80
27779;DHT22;30234;48.090;11.464;2022-07-10T13:08:56;24.80;69.00
27779;DHT22;30234;48.090;11.464;2022-07-10T13:12:57;26.00;62.80
27779;DHT22;30234;48.090;11.464;2022-07-10T13:16:57;26.10;62.40
27779;DHT22;30234;48.090;11.464;2022-07-10T13:20:58;25.60;64.50
27779;DHT22;30234;48.090;11.464;2022-07-10T13:25:04;25.10;64.00
27779;DHT22;30234;48.090;11.464;2022-07-10T13:29:08;24.10;66.10
27779;DHT22;30234;48.090;11.464;2022-07-10T13:33:09;23.90;66.60
27779;DHT22;30234;48.090;11.464;2022-07-10T13:37:10;24.00;65.80
27779;DHT22;30234;48.090;11.464;2022-07-10T13:41:15;24.30;66.60
27779;DHT22;30234;48.090;11.464;2022-07-10T13:45:19;24.50;67.10
27779;DHT22;30234;48.090;11.464;2022-07-10T13:49:20;25.20;65.40
27779;DHT22;30234;48.090;11.464;2022-07-10T13:53:22;25.20;64.40
27779;DHT22;30234;48.090;11.464;2022-07-10T13:57:23;25.00;62.80
27779;DHT22;30234;48.090;11.464;2022-07-10T14:01:24;24.60;64.40
27779;DHT22;30234;48.090;11.464;2022-07-10T14:05:25;25.10;64.20
27779;DHT22;30234;48.090;11.464;2022-07-10T14:09:29;24.80;61.80
27779;DHT22;30234;48.090;11.464;2022-07-10T14:13:32;24.50;62.60
27779;DHT22;30234;48.090;11.464;2022-07-10T14:17:47;23.90;63.40
27779;DHT22;30234;48.090;11.464;2022-07-10T14:21:51;24.20;63.80
27779;DHT22;30234;48.090;11.464;2022-07-10T14:25:56;24.50;62.70
27779;DHT22;30234;48.090;11.464;2022-07-10T14:29:57;24.60;62.60
27779;DHT22;30234;48.090;11.464;2022-07-10T14:34:04;24.30;62.70
27779;DHT22;30234;48.090;11.464;2022-07-10T14:38:08;23.60;63.40
27779;DHT22;30234;48.090;11.464;2022-07-10T14:42:14;23.70;62.70
27779;DHT22;30234;48.090;11.464;2022-07-10T14:46:22;24.10;63.60
27779;DHT22;30234;48.090;11.464;2022-07-10T14:50:23;24.40;62.00
27779;DHT22;30234;48.090;11.464;2022-07-10T14:54:23;23.70;62.60
27779;DHT22;30234;48.090;11.464;2022-07-10T14:58:24;23.30;62.70
27779;DHT22;30234;48.090;11.464;2022-07-10T15:02:26;23.40;62.00
27779;DHT22;30234;48.090;11.464;2022-07-10T15:06:29;23.90;62.60
27779;DHT22;30234;48.090;11.464;2022-07-10T15:10:33;24.30;61.60
27779;DHT22;30234;48.090;11.464;2022-07-10T15:14:42;23.80;60.60
27779;DHT22;30234;48.090;11.464;2022-07-10T15:18:45;23.50;62.40
27779;DHT22;30234;48.090;11.464;2022-07-10T15:22:46;23.80;61.30
27779;DHT22;30234;48.090;11.464;2022-07-10T15:26:47;23.80;60.70
27779;DHT22;30234;48.090;11.464;2022-07-10T15:30:48;23.00;62.50
27779;DHT22;30234;48.090;11.464;2022-07-10T15:34:49;22.90;62.50
27779;DHT22;30234;48.090;11.464;2022-07-10T15:38:50;22.70;62.60
27779;DHT22;30234;48.090;11.464;2022-07-10T15:42:51;22.60;63.40
27779;DHT22;30234;48.090;11.464;2022-07-10T15:46:55;23.20;62.50
27779;DHT22;30234;48.090;11.464;2022-07-10T15:50:58;23.10;61.40
27779;DHT22;30234;48.090;11.464;2022-07-10T15:54:59;22.80;61.10
27779;DHT22;30234;48.090;11.464;2022-07-10T15:59:00;22.70;61.90
27779;DHT22;30234;48.090;11.464;2022-07-10T16:03:01;22.60;61.90
27779;DHT22;30234;48.090;11.464;2022-07-10T16:07:02;22.60;61.00
27779;DHT22;30234;48.090;11.464;2022-07-10T16:11:06;22.40;62.70
27779;DHT22;30234;48.090;11.464;2022-07-10T16:15:08;22.60;61.70
27779;DHT22;30234;48.090;11.464;2022-07-10T16:19:08;22.40;61.40
27779;DHT22;30234;48.090;11.464;2022-07-10T16:23:09;22.00;62.00
27779;DHT22;30234;48.090;11.464;2022-07-10T16:27:10;21.60;62.60
27779;DHT22;30234;48.090;11.464;2022-07-10T16:31:12;21.40;63.70
27779;DHT22;30234;48.090;11.464;2022-07-10T16:35:13;21.70;63.20
27779;DHT22;30234;48.090;11.464;2022-07-10T16:39:17;21.60;63.50
27779;DHT22;30234;48.090;11.464;2022-07-10T16:43:18;21.60;63.50
27779;DHT22;30234;48.090;11.464;2022-07-10T16:47:19;21.60;63.40
27779;DHT22;30234;48.090;11.464;2022-07-10T16:51:20;21.60;62.90
27779;DHT22;30234;48.090;11.464;2022-07-10T16:55:23;21.60;63.70
27779;DHT22;30234;48.090;11.464;2022-07-10T16:59:24;21.40;62.80
27779;DHT22;30234;48.090;11.464;2022-07-10T17:03:26;21.20;63.80
27779;DHT22;30234;48.090;11.464;2022-07-10T17:07:27;21.00;63.90
27779;DHT22;30234;48.090;11.464;2022-07-10T17:11:27;21.00;64.90
27779;DHT22;30234;48.090;11.464;2022-07-10T17:15:30;20.90;65.10
27779;DHT22;30234;48.090;11.464;2022-07-10T17:19:31;20.70;65.50
27779;DHT22;30234;48.090;11.464;2022-07-10T17:23:32;20.60;65.70
27779;DHT22;30234;48.090;11.464;2022-07-10T17:27:33;20.80;65.80
27779;DHT22;30234;48.090;11.464;2022-07-10T17:31:33;20.50;65.90
27779;DHT22;30234;48.090;11.464;2022-07-10T17:35:34;20.10;67.00
27779;DHT22;30234;48.090;11.464;2022-07-10T17:39:36;19.60;68.00
27779;DHT22;30234;48.090;11.464;2022-07-10T17:43:36;19.50;69.10
27779;DHT22;30234;48.090;11.464;2022-07-10T17:47:37;19.30;69.80
27779;DHT22;30234;48.090;11.464;2022-07-10T17:51:38;19.00;70.00
27779;DHT22;30234;48.090;11.464;2022-07-10T17:55:39;18.90;71.10
27779;DHT22;30234;48.090;11.464;2022-07-10T17:59:39;18.70;71.10
27779;DHT22;30234;48.090;11.464;2022-07-10T18:03:40;18.60;72.00
27779;DHT22;30234;48.090;11.464;2022-07-10T18:07:41;18.40;72.60
27779;DHT22;30234;48.090;11.464;2022-07-10T18:11:42;18.30;73.30
27779;DHT22;30234;48.090;11.464;2022-07-10T18:15:45;18.20;73.90
27779;DHT22;30234;48.090;11.464;2022-07-10T18:19:46;18.00;74.20
27779;DHT22;30234;48.090;11.464;2022-07-10T18:23:47;17.90;74.50
27779;DHT22;30234;48.090;11.464;2022-07-10T18:27:48;17.70;74.50
27779;DHT22;30234;48.090;11.464;2022-07-10T18:31:49;17.50;75.40
27779;DHT22;30234;48.090;11.464;2022-07-10T18:35:50;17.40;75.70
27779;DHT22;30234;48.090;11.464;2022-07-10T18:39:51;17.20;75.90
27779;DHT22;30234;48.090;11.464;2022-07-10T18:43:52;17.00;76.40
27779;DHT22;30234;48.090;11.464;2022-07-10T18:47:52;16.90;77.30
27779;DHT22;30234;48.090;11.464;2022-07-10T18:51:53;16.70;77.80
27779;DHT22;30234;48.090;11.464;2022-07-10T18:55:55;16.60;78.00
27779;DHT22;30234;48.090;11.464;2022-07-10T18:59:55;16.40;78.00
27779;DHT22;30234;48.090;11.464;2022-07-10T19:03:56;16.30;78.80
27779;DHT22;30234;48.090;11.464;2022-07-10T19:07:57;16.20;79.20
27779;DHT22;30234;48.090;11.464;2022-07-10T19:11:58;16.00;79.70
27779;DHT22;30234;48.090;11.464;2022-07-10T19:16:02;15.80;80.30
27779;DHT22;30234;48.090;11.464;2022-07-10T19:20:03;15.70;80.80
27779;DHT22;30234;48.090;11.464;2022-07-10T19:24:06;15.50;81.80
27779;DHT22;30234;48.090;11.464;2022-07-10T19:28:07;15.30;82.20
27779;DHT22;30234;48.090;11.464;2022-07-10T19:32:09;15.20;83.60
27779;DHT22;30234;48.090;11.464;2022-07-10T19:36:10;15.20;84.50
27779;DHT22;30234;48.090;11.464;2022-07-10T19:40:11;14.80;85.90
27779;DHT22;30234;48.090;11.464;2022-07-10T19:44:13;14.60;86.80
27779;DHT22;30234;48.090;11.464;2022-07-10T19:48:14;14.50;87.00
27779;DHT22;30234;48.090;11.464;2022-07-10T19:52:15;14.30;88.20
27779;DHT22;30234;48.090;11.464;2022-07-10T19:56:16;14.10;90.10
27779;DHT22;30234;48.090;11.464;2022-07-10T20:00:16;13.90;90.60
27779;DHT22;30234;48.090;11.464;2022-07-10T20:04:17;13.70;91.60
27779;DHT22;30234;48.090;11.464;2022-07-10T20:08:20;13.50;92.10
27779;DHT22;30234;48.090;11.464;2022-07-10T20:12:21;13.30;93.50
27779;DHT22;30234;48.090;11.464;2022-07-10T20:16:25;13.20;94.10
27779;DHT22;30234;48.090;11.464;2022-07-10T20:20:26;13.10;94.90
27779;DHT22;30234;48.090;11.464;2022-07-10T20:24:27;13.00;96.30
27779;DHT22;30234;48.090;11.464;2022-07-10T20:28:29;13.10;99.90
27779;DHT22;30234;48.090;11.464;2022-07-10T20:32:32;13.10;99.90
27779;DHT22;30234;48.090;11.464;2022-07-10T20:36:33;12.80;99.90
27779;DHT22;30234;48.090;11.464;2022-07-10T20:40:52;12.60;99.90
27779;DHT22;30234;48.090;11.464;2022-07-10T20:44:53;12.60;99.90
27779;DHT22;30234;48.090;11.464;2022-07-10T20:48:54;12.50;99.90
27779;DHT22;30234;48.090;11.464;2022-07-10T20:52:55;12.40;99.90
27779;DHT22;30234;48.090;11.464;2022-07-10T20:56:55;12.20;99.90
27779;DHT22;30234;48.090;11.464;2022-07-10T21:00:56;12.00;99.90
27779;DHT22;30234;48.090;11.464;2022-07-10T21:04:57;11.80;99.90
27779;DHT22;30234;48.090;11.464;2022-07-10T21:08:58;11.60;99.90
27779;DHT22;30234;48.090;11.464;2022-07-10T21:12:59;11.50;99.90
27779;DHT22;30234;48.090;11.464;2022-07-10T21:17:00;11.50;99.90
27779;DHT22;30234;48.090;11.464;2022-07-10T21:21:01;11.40;99.90
27779;DHT22;30234;48.090;11.464;2022-07-10T21:25:02;11.40;99.90
27779;DHT22;30234;48.090;11.464;2022-07-10T21:29:03;11.30;99.90
27779;DHT22;30234;48.090;11.464;2022-07-10T21:33:05;11.10;99.90
27779;DHT22;30234;48.090;11.464;2022-07-10T21:37:06;10.90;99.90
27779;DHT22;30234;48.090;11.464;2022-07-10T21:41:07;10.70;99.90
27779;DHT22;30234;48.090;11.464;2022-07-10T21:45:09;10.80;99.90
27779;DHT22;30234;48.090;11.464;2022-07-10T21:49:09;10.80;99.90
27779;DHT22;30234;48.090;11.464;2022-07-10T21:53:10;10.90;99.90
27779;DHT22;30234;48.090;11.464;2022-07-10T21:57:11;10.70;99.90
27779;DHT22;30234;48.090;11.464;2022-07-10T22:01:12;10.50;99.90
27779;DHT22;30234;48.090;11.464;2022-07-10T22:05:13;10.40;99.90
27779;DHT22;30234;48.090;11.464;2022-07-10T22:09:14;10.50;99.90
27779;DHT22;30234;48.090;11.464;2022-07-10T22:13:15;10.30;99.90
27779;DHT22;30234;48.090;11.464;2022-07-10T22:17:15;10.20;99.90
27779;DHT22;30234;48.090;11.464;2022-07-10T22:21:16;10.10;99.90
27779;DHT22;30234;48.090;11.464;2022-07-10T22:25:17;10.10;99.90
27779;DHT22;30234;48.090;11.464;2022-07-10T22:29:20;10.10;99.90
27779;DHT22;30234;48.090;11.464;2022-07-10T22:33:21;10.00;99.90
27779;DHT22;30234;48.090;11.464;2022-07-10T22:37:22;9.80;99.90
27779;DHT22;30234;48.090;11.464;2022-07-10T22:41:22;9.70;99.90
27779;DHT22;30234;48.090;11.464;2022-07-10T22:45:23;9.70;99.90
27779;DHT22;30234;48.090;11.464;2022-07-10T22:49:24;9.60;99.90
27779;DHT22;30234;48.090;11.464;2022-07-10T22:53:25;9.60;99.90
27779;DHT22;30234;48.090;11.464;2022-07-10T22:57:25;9.60;99.90
27779;DHT22;30234;48.090;11.464;2022-07-10T23:01:26;9.70;99.90
27779;DHT22;30234;48.090;11.464;2022-07-10T23:05:27;9.70;99.90
27779;DHT22;30234;48.090;11.464;2022-07-10T23:09:28;9.70;99.90
27779;DHT22;30234;48.090;11.464;2022-07-10T23:13:28;9.90;99.90
27779;DHT22;30234;48.090;11.464;2022-07-10T23:17:30;9.90;99.90
27779;DHT22;30234;48.090;11.464;2022-07-10T23:21:31;10.00;99.90
27779;DHT22;30234;48.090;11.464;2022-07-10T23:25:31;10.20;99.90
27779;DHT22;30234;48.090;11.464;2022-07-10T23:29:32;10.60;99.90
27779;DHT22;30234;48.090;11.464;2022-07-10T23:33:33;10.80;99.90
27779;DHT22;30234;48.090;11.464;2022-07-10T23:37:34;10.80;99.90
27779;DHT22;30234;48.090;11.464;2022-07-10T23:41:35;10.80;99.90
27779;DHT22;30234;48.090;11.464;2022-07-10T23:45:36;10.90;99.90
27779;DHT22;30234;48.090;11.464;2022-07-10T23:49:37;11.10;99.90
27779;DHT22;30234;48.090;11.464;2022-07-10T23:53:56;11.30;99.90
27779;DHT22;30234;48.090;11.464;2022-07-10T23:57:56;11.50;99.90
